Time;durP1;ratioP1;P1;durP2;ratioP2;P2;SDS_P1;SDS_P2;PMS_P1;PMS_P2;Temp;Humidity;BMP_temperature;BMP_pressure;BME280_temperature;BME280_humidity;BME280_pressure;Samples;Min_cycle;Max_cycle;Signal;HPM_P1;HPM_P2
2024/04/17 00:01:18;;;;;;;13.55;3.38;;;4.10;99.90;;;;;;7374789;19;20660;-62
2024/04/17 00:03:44;;;;;;;10.10;3.78;;;4.10;99.90;;;;;;7374048;19;20366;-63
2024/04/17 00:06:12;;;;;;;21.30;3.83;;;4.10;99.90;;;;;;7371960;19;20026;-63
2024/04/17 00:08:38;;;;;;;14.65;4.30;;;4.10;99.90;;;;;;7373452;19;20017;-63
2024/04/17 00:11:06;;;;;;;15.30;3.90;;;4.10;99.90;;;;;;7372792;19;20438;-63
2024/04/17 00:13:32;;;;;;;13.95;3.92;;;4.00;99.90;;;;;;7374892;19;20022;-63
2024/04/17 00:15:59;;;;;;;14.35;3.65;;;4.10;99.90;;;;;;7371183;19;20386;-63
2024/04/17 00:18:26;;;;;;;14.38;4.45;;;4.10;99.90;;;;;;7373390;19;20023;-63
2024/04/17 00:20:52;;;;;;;15.77;3.65;;;4.10;99.90;;;;;;7375902;19;20080;-63
2024/04/17 00:23:19;;;;;;;11.93;3.83;;;4.10;99.90;;;;;;7374495;19;20491;-63
2024/04/17 00:25:46;;;;;;;10.80;3.50;;;4.00;99.90;;;;;;7375362;19;20014;-61
2024/04/17 00:28:14;;;;;;;13.45;4.50;;;4.00;99.90;;;;;;7371389;19;20041;-61
2024/04/17 00:30:41;;;;;;;14.35;3.83;;;4.00;99.90;;;;;;7375472;19;20816;-61
2024/04/17 00:33:07;;;;;;;12.57;3.10;;;4.00;99.90;;;;;;7372887;19;20906;-61
2024/04/17 00:35:33;;;;;;;10.30;3.20;;;3.90;99.90;;;;;;7373169;19;20558;-61
2024/04/17 00:37:59;;;;;;;13.57;3.70;;;3.90;99.90;;;;;;7373612;19;20010;-59
2024/04/17 00:40:25;;;;;;;10.75;4.22;;;3.90;99.90;;;;;;7373087;19;20027;-59
2024/04/17 00:42:52;;;;;;;14.18;3.80;;;3.80;99.90;;;;;;7373566;19;20015;-61
2024/04/17 00:45:18;;;;;;;10.80;3.88;;;3.80;99.90;;;;;;7373074;19;20039;-62
2024/04/17 00:47:44;;;;;;;12.50;4.20;;;3.80;99.90;;;;;;7376170;19;20022;-62
2024/04/17 00:50:12;;;;;;;14.90;4.10;;;3.80;99.90;;;;;;7379687;19;20041;-62
2024/04/17 00:52:39;;;;;;;9.15;3.60;;;3.70;99.90;;;;;;7380104;19;20018;-62
2024/04/17 00:55:07;;;;;;;13.75;3.85;;;3.70;99.90;;;;;;7379933;19;20018;-61
2024/04/17 00:57:34;;;;;;;12.57;3.95;;;3.60;99.90;;;;;;7379128;19;20023;-62
2024/04/17 01:00:02;;;;;;;15.70;3.78;;;3.60;99.90;;;;;;7378684;19;20911;-62
2024/04/17 01:02:28;;;;;;;12.45;3.70;;;3.50;99.90;;;;;;7382542;19;20339;-61
2024/04/17 01:04:55;;;;;;;10.90;3.85;;;3.50;99.90;;;;;;7379891;19;20026;-62
2024/04/17 01:07:21;;;;;;;13.88;3.88;;;3.50;99.90;;;;;;7373375;19;20019;-62
2024/04/17 01:09:47;;;;;;;14.48;3.35;;;3.40;99.90;;;;;;7375731;19;20014;-59
2024/04/17 01:12:14;;;;;;;17.88;3.78;;;3.40;99.90;;;;;;7378937;19;20365;-60
2024/04/17 01:14:40;;;;;;;12.15;3.95;;;3.30;99.90;;;;;;7377602;19;20014;-62
2024/04/17 01:40:34;;;;;;;12.35;3.55;;;3.30;99.90;;;;;;7376919;19;20641;-61
2024/04/17 01:43:21;;;;;;;14.20;4.32;;;3.30;99.90;;;;;;7375507;19;20021;-61
2024/04/17 01:45:48;;;;;;;19.70;4.28;;;3.30;99.90;;;;;;7375205;19;20928;-60
2024/04/17 01:48:14;;;;;;;19.23;5.03;;;3.30;99.90;;;;;;7372976;19;20018;-63
2024/04/17 01:50:40;;;;;;;10.70;4.03;;;3.30;99.90;;;;;;7376486;19;20364;-63
2024/04/17 01:53:06;;;;;;;16.55;4.90;;;3.40;99.90;;;;;;7370884;19;20018;-63
2024/04/17 01:55:32;;;;;;;10.55;4.13;;;3.40;99.90;;;;;;7375279;19;20907;-63
2024/04/17 01:58:02;;;;;;;15.90;4.47;;;3.60;99.90;;;;;;7369776;19;20752;-61
2024/04/17 02:00:28;;;;;;;11.40;4.68;;;3.60;99.90;;;;;;7373867;19;20014;-61
2024/04/17 02:02:55;;;;;;;12.75;5.32;;;3.70;99.90;;;;;;7373624;19;20054;-61
2024/04/17 02:05:21;;;;;;;17.02;4.78;;;3.80;99.90;;;;;;7375846;19;20018;-61
2024/04/17 02:07:47;;;;;;;16.27;5.00;;;3.90;99.90;;;;;;7372427;19;20015;-61
2024/04/17 02:10:13;;;;;;;13.68;4.95;;;4.00;99.90;;;;;;7372334;19;20026;-61
2024/04/17 02:12:40;;;;;;;14.77;4.82;;;4.10;99.90;;;;;;7376586;19;20117;-61
2024/04/17 02:15:07;;;;;;;20.38;4.75;;;4.20;99.90;;;;;;7376719;19;20018;-61
2024/04/17 02:17:33;;;;;;;11.48;4.25;;;4.30;99.90;;;;;;7377391;19;20026;-61
2024/04/17 02:19:59;;;;;;;11.68;4.18;;;4.30;99.90;;;;;;7377240;19;20426;-61
2024/04/17 02:22:25;;;;;;;14.63;4.45;;;4.40;99.90;;;;;;7380672;19;20494;-61
2024/04/17 02:24:51;;;;;;;11.88;4.47;;;4.40;99.90;;;;;;7376484;19;20402;-61
2024/04/17 02:27:18;;;;;;;12.80;4.45;;;4.50;99.90;;;;;;7373304;19;20022;-61
2024/04/17 02:29:47;;;;;;;13.38;4.10;;;4.50;99.90;;;;;;7377728;19;20043;-61
2024/04/17 02:32:14;;;;;;;12.05;5.22;;;4.60;99.90;;;;;;7376591;19;20019;-61
2024/04/17 02:34:40;;;;;;;9.80;3.67;;;4.60;99.90;;;;;;7378232;19;20015;-61
2024/04/17 02:37:06;;;;;;;11.43;4.50;;;4.60;99.90;;;;;;7376965;19;20024;-61
2024/04/17 02:39:33;;;;;;;12.52;4.75;;;4.60;99.90;;;;;;7376725;19;20022;-61
2024/04/17 02:41:59;;;;;;;10.30;4.00;;;4.70;99.90;;;;;;7372951;19;20020;-61
2024/04/17 02:44:25;;;;;;;10.60;4.20;;;4.70;99.90;;;;;;7374890;19;20026;-61
2024/04/17 02:46:51;;;;;;;15.68;5.32;;;4.70;99.90;;;;;;7376878;19;20037;-61
2024/04/17 02:49:18;;;;;;;14.07;4.38;;;4.70;99.90;;;;;;7376619;19;20030;-61
2024/04/17 02:51:45;;;;;;;12.68;4.20;;;4.70;99.90;;;;;;7378204;19;20014;-61
2024/04/17 02:54:11;;;;;;;9.13;4.25;;;4.80;99.90;;;;;;7378498;19;20848;-61
2024/04/17 02:56:38;;;;;;;12.10;4.38;;;4.70;99.90;;;;;;7369974;19;20098;-63
2024/04/17 02:59:05;;;;;;;13.02;4.28;;;4.80;99.90;;;;;;7375070;19;20565;-63
2024/04/17 03:01:31;;;;;;;10.10;4.28;;;4.80;99.90;;;;;;7378554;19;20037;-63
2024/04/17 03:03:58;;;;;;;15.10;4.35;;;4.80;99.90;;;;;;7375105;19;20853;-63
2024/04/17 03:06:24;;;;;;;9.18;4.00;;;4.80;99.90;;;;;;7377568;19;20534;-63
2024/04/17 03:09:10;;;;;;;14.60;4.88;;;4.80;99.90;;;;;;7371349;19;20022;-63
2024/04/17 03:11:36;;;;;;;15.27;4.72;;;4.80;99.90;;;;;;7376104;19;20014;-63
2024/04/17 03:14:21;;;;;;;15.93;5.15;;;4.90;99.90;;;;;;7375372;19;20653;-61
2024/04/17 03:16:48;;;;;;;12.00;4.55;;;4.90;99.90;;;;;;7374917;19;20838;-63
2024/04/17 03:19:14;;;;;;;14.75;4.78;;;4.90;99.90;;;;;;7373710;19;20036;-64
2024/04/17 03:21:42;;;;;;;10.20;3.83;;;4.90;99.90;;;;;;7373055;19;20438;-64
2024/04/17 03:24:08;;;;;;;11.55;4.50;;;4.90;99.90;;;;;;7373690;19;20019;-63
2024/04/17 03:26:34;;;;;;;10.23;4.25;;;4.90;99.90;;;;;;7374183;19;20482;-63
2024/04/17 03:29:20;;;;;;;9.80;4.35;;;4.90;99.90;;;;;;7373109;19;20078;-65
2024/04/17 03:31:47;;;;;;;17.67;4.60;;;4.90;99.90;;;;;;7375265;19;20014;-63
2024/04/17 03:34:13;;;;;;;9.27;3.92;;;4.90;99.90;;;;;;7374704;19;20979;-61
2024/04/17 03:36:39;;;;;;;12.57;4.30;;;4.90;99.90;;;;;;7370262;19;20036;-60
2024/04/17 03:39:06;;;;;;;10.55;4.30;;;4.90;99.90;;;;;;7376184;19;20029;-61
2024/04/17 03:41:32;;;;;;;8.07;4.10;;;4.90;99.90;;;;;;7374327;19;20031;-60
2024/04/17 03:43:58;;;;;;;10.57;4.18;;;4.90;99.90;;;;;;7376562;19;20019;-61
2024/04/17 03:46:45;;;;;;;7.75;3.78;;;4.80;99.90;;;;;;7373698;19;20018;-63
2024/04/17 03:49:12;;;;;;;9.95;4.05;;;4.90;99.90;;;;;;7373254;19;20114;-61
2024/04/17 03:51:38;;;;;;;7.50;3.60;;;4.90;99.90;;;;;;7374081;19;20045;-61
2024/04/17 03:54:07;;;;;;;12.43;4.07;;;4.80;99.90;;;;;;7375758;19;20014;-63
2024/04/17 03:56:48;;;;;;;12.25;4.50;;;4.80;99.90;;;;;;7376995;19;20019;-63
2024/04/17 03:59:14;;;;;;;10.18;3.67;;;4.90;99.90;;;;;;7374106;19;20018;-63
2024/04/17 04:01:45;;;;;;;8.73;3.75;;;4.90;99.90;;;;;;7373316;19;20018;-63
2024/04/17 04:04:11;;;;;;;7.10;3.90;;;4.90;99.90;;;;;;7378060;19;20019;-60
2024/04/17 04:06:57;;;;;;;10.88;3.65;;;4.90;99.90;;;;;;7371574;19;20018;-61
2024/04/17 04:09:23;;;;;;;11.68;4.40;;;4.90;99.90;;;;;;7374142;19;20019;-63
2024/04/17 04:11:53;;;;;;;9.93;4.05;;;4.90;99.90;;;;;;7373027;19;20022;-63
2024/04/17 04:14:20;;;;;;;12.35;4.22;;;4.90;99.90;;;;;;7373750;19;20369;-63
2024/04/17 04:16:46;;;;;;;8.02;4.00;;;4.90;99.90;;;;;;7374552;19;20541;-63
2024/04/17 04:19:12;;;;;;;8.10;3.78;;;4.90;99.90;;;;;;7372844;19;20424;-63
2024/04/17 04:21:38;;;;;;;11.75;4.00;;;4.90;99.90;;;;;;7379335;19;20062;-61
2024/04/17 04:24:08;;;;;;;7.65;4.10;;;4.90;99.90;;;;;;7384081;19;20620;-61
2024/04/17 04:26:34;;;;;;;9.30;3.22;;;4.90;99.90;;;;;;7376937;19;20431;-64
2024/04/17 04:29:20;;;;;;;9.82;3.80;;;4.90;99.90;;;;;;7380217;19;20033;-61
2024/04/17 04:31:46;;;;;;;9.43;3.92;;;4.80;99.90;;;;;;7380045;19;20018;-61
2024/04/17 04:34:12;;;;;;;8.65;4.15;;;4.90;99.90;;;;;;7384719;19;20027;-63
2024/04/17 04:36:38;;;;;;;9.25;3.88;;;4.90;99.90;;;;;;7378961;19;20045;-63
2024/04/17 04:39:05;;;;;;;8.55;3.75;;;4.90;99.90;;;;;;7380559;19;20626;-62
2024/04/17 04:41:31;;;;;;;8.07;3.55;;;4.90;99.90;;;;;;7380415;19;20010;-63
2024/04/17 04:43:57;;;;;;;9.30;3.72;;;4.80;99.90;;;;;;7381425;19;20474;-63
2024/04/17 04:46:24;;;;;;;6.10;2.63;;;4.80;99.90;;;;;;7380847;19;20014;-62
2024/04/17 04:48:50;;;;;;;7.78;3.17;;;4.90;99.90;;;;;;7380610;19;20798;-63
2024/04/17 04:51:16;;;;;;;7.05;2.95;;;4.90;99.90;;;;;;7377723;19;20426;-60
2024/04/17 04:53:42;;;;;;;8.13;2.95;;;4.90;99.90;;;;;;7383040;19;20091;-60
2024/04/17 04:56:09;;;;;;;5.88;3.25;;;4.90;99.90;;;;;;7382350;19;20022;-60
2024/04/17 04:58:36;;;;;;;9.70;3.05;;;4.90;99.90;;;;;;7378725;19;20479;-61
2024/04/17 05:01:05;;;;;;;6.82;2.97;;;4.90;99.90;;;;;;7379892;19;20018;-60
2024/04/17 05:03:31;;;;;;;8.20;3.00;;;5.10;99.90;;;;;;7383102;19;20022;-61
2024/04/17 05:05:57;;;;;;;6.05;2.60;;;5.00;99.90;;;;;;7380037;19;20049;-61
2024/04/17 05:08:23;;;;;;;6.50;2.58;;;5.10;99.90;;;;;;7377881;19;20694;-60
2024/04/17 05:10:50;;;;;;;8.52;3.22;;;5.10;99.90;;;;;;7380998;19;20674;-61
2024/04/17 05:13:16;;;;;;;6.85;2.70;;;5.10;99.90;;;;;;7381027;19;20019;-60
2024/04/17 05:15:43;;;;;;;7.18;2.53;;;5.10;99.90;;;;;;7380956;19;20577;-60
2024/04/17 05:18:09;;;;;;;5.50;2.55;;;5.10;99.90;;;;;;7379408;19;20082;-61
2024/04/17 05:20:35;;;;;;;9.18;2.80;;;5.10;99.90;;;;;;7379639;19;20018;-61
2024/04/17 05:23:02;;;;;;;13.10;3.17;;;5.20;99.90;;;;;;7380576;19;20018;-60
2024/04/17 05:25:28;;;;;;;7.55;2.85;;;5.20;99.90;;;;;;7378177;19;22247;-60
2024/04/17 05:27:54;;;;;;;5.72;2.40;;;5.30;99.90;;;;;;7379992;19;20042;-60
2024/04/17 05:30:20;;;;;;;5.18;1.75;;;5.30;99.90;;;;;;7378482;19;20077;-61
2024/04/17 05:32:49;;;;;;;4.68;2.10;;;5.30;99.90;;;;;;7380794;19;20026;-60
2024/04/17 05:35:15;;;;;;;8.18;2.97;;;5.30;99.90;;;;;;7379627;19;20014;-61
2024/04/17 05:37:42;;;;;;;5.13;2.00;;;5.30;99.90;;;;;;7381210;19;20762;-61
2024/04/17 05:40:08;;;;;;;7.75;2.10;;;5.30;99.90;;;;;;7377391;19;20007;-60
2024/04/17 05:42:34;;;;;;;6.25;2.13;;;5.30;99.90;;;;;;7377129;19;20010;-60
2024/04/17 05:45:04;;;;;;;6.22;1.90;;;5.40;99.90;;;;;;7377123;19;20015;-60
2024/04/17 05:47:31;;;;;;;5.72;2.28;;;5.40;99.90;;;;;;7378428;19;20018;-60
2024/04/17 05:49:57;;;;;;;6.68;1.85;;;5.50;99.90;;;;;;7377425;19;20609;-60
2024/04/17 05:52:23;;;;;;;3.60;1.77;;;5.60;99.90;;;;;;7379000;19;20015;-61
2024/04/17 05:54:49;;;;;;;5.55;1.60;;;5.60;99.90;;;;;;7377191;19;20019;-62
2024/04/17 05:57:15;;;;;;;3.55;1.88;;;5.70;99.90;;;;;;7381279;19;20070;-60
2024/04/17 05:59:41;;;;;;;5.65;2.00;;;5.80;99.90;;;;;;7378615;19;20018;-61
2024/04/17 06:02:08;;;;;;;4.75;1.98;;;5.80;99.90;;;;;;7380490;19;20018;-61
2024/04/17 06:04:34;;;;;;;5.30;2.00;;;6.00;99.90;;;;;;7381150;19;20021;-60
2024/04/17 06:07:10;;;;;;;3.28;1.70;;;6.10;99.90;;;;;;7377161;19;20022;-60
2024/04/17 06:09:36;;;;;;;4.57;1.70;;;6.20;99.90;;;;;;7380538;19;20030;-61
2024/04/17 06:12:03;;;;;;;4.95;2.10;;;6.20;99.90;;;;;;7379579;19;20014;-61
2024/04/17 06:14:29;;;;;;;4.88;1.83;;;6.40;99.90;;;;;;7380832;19;20074;-60
2024/04/17 06:16:56;;;;;;;8.30;1.80;;;6.50;99.90;;;;;;7380163;19;20035;-61
2024/04/17 06:19:22;;;;;;;6.60;1.70;;;6.60;99.90;;;;;;7380287;19;20018;-62
2024/04/17 06:21:48;;;;;;;6.72;2.30;;;6.60;99.90;;;;;;7377206;19;20025;-60
2024/04/17 06:24:15;;;;;;;2.22;1.20;;;6.60;99.90;;;;;;7378278;19;20014;-61
2024/04/17 06:26:41;;;;;;;4.53;1.30;;;6.70;99.90;;;;;;7378337;19;20717;-60
2024/04/17 06:29:07;;;;;;;4.80;1.20;;;6.70;99.90;;;;;;7377900;19;20037;-60
2024/04/17 06:31:33;;;;;;;6.13;1.25;;;6.70;99.90;;;;;;7375458;19;20018;-60
2024/04/17 06:34:00;;;;;;;5.88;1.50;;;6.80;99.90;;;;;;7380959;19;20022;-60
2024/04/17 06:36:26;;;;;;;3.25;1.35;;;6.90;99.90;;;;;;7376552;19;20015;-59
2024/04/17 06:38:55;;;;;;;3.78;1.33;;;7.00;99.90;;;;;;7378055;19;20023;-58
2024/04/17 06:41:21;;;;;;;5.00;2.28;;;7.00;99.90;;;;;;7374097;19;20513;-59
2024/04/17 06:43:47;;;;;;;5.90;1.33;;;7.20;99.90;;;;;;7378941;19;20018;-61
2024/04/17 06:46:14;;;;;;;4.05;0.98;;;7.00;99.90;;;;;;7376891;19;20396;-61
2024/04/17 06:48:40;;;;;;;2.40;1.00;;;7.00;99.90;;;;;;7379497;19;20476;-64
2024/04/17 06:51:06;;;;;;;5.05;1.02;;;7.00;99.90;;;;;;7379602;19;20039;-61
2024/04/17 06:53:32;;;;;;;8.45;1.58;;;7.10;99.90;;;;;;7380412;19;20601;-60
2024/04/17 06:55:59;;;;;;;5.47;1.48;;;7.10;99.90;;;;;;7377245;19;20510;-59
2024/04/17 06:58:26;;;;;;;9.70;1.40;;;7.10;99.90;;;;;;7379279;19;20101;-62
2024/04/17 07:00:52;;;;;;;4.78;1.20;;;7.00;99.90;;;;;;7377793;19;20026;-62
2024/04/17 07:03:18;;;;;;;9.25;4.32;;;7.20;99.90;;;;;;7378297;19;20041;-62
2024/04/17 07:05:46;;;;;;;6.03;1.10;;;7.40;99.90;;;;;;7378472;19;20019;-59
2024/04/17 07:08:12;;;;;;;5.05;1.45;;;7.40;99.90;;;;;;7377856;19;20018;-60
2024/04/17 07:10:41;;;;;;;5.50;1.13;;;7.50;99.90;;;;;;7378653;19;20041;-62
2024/04/17 07:13:08;;;;;;;6.70;1.40;;;7.60;99.90;;;;;;7376655;19;20046;-61
2024/04/17 07:15:35;;;;;;;5.15;1.23;;;7.60;99.90;;;;;;7376971;19;20362;-59
2024/04/17 07:18:02;;;;;;;9.90;1.50;;;7.70;99.90;;;;;;7377216;19;20014;-59
2024/04/17 07:20:29;;;;;;;9.00;1.67;;;7.70;99.90;;;;;;7376802;19;20725;-60
2024/04/17 07:22:55;;;;;;;7.75;1.63;;;7.80;99.90;;;;;;7372337;19;20093;-61
2024/04/17 07:25:21;;;;;;;5.93;1.63;;;7.70;99.90;;;;;;7375424;19;20022;-60
2024/04/17 07:27:47;;;;;;;6.35;1.50;;;7.70;60.50;;;;;;7371804;19;20429;-61
2024/04/17 07:30:14;;;;;;;7.65;1.92;;;7.80;99.90;;;;;;7373125;19;20774;-61
2024/04/17 07:32:40;;;;;;;5.32;1.15;;;7.70;34.60;;;;;;7377519;19;20466;-60
2024/04/17 07:35:06;;;;;;;6.40;1.60;;;7.60;66.70;;;;;;7376481;19;20022;-61
2024/04/17 07:37:33;;;;;;;7.03;1.60;;;7.60;99.90;;;;;;7378381;19;20046;-63
2024/04/17 07:39:59;;;;;;;8.45;1.70;;;7.70;99.90;;;;;;7377267;19;20609;-63
2024/04/17 07:42:25;;;;;;;6.68;1.33;;;7.70;99.90;;;;;;7372304;19;20050;-63
2024/04/17 07:44:52;;;;;;;5.45;1.48;;;7.70;99.90;;;;;;7377029;19;20018;-64
2024/04/17 07:47:18;;;;;;;6.15;1.60;;;7.80;99.90;;;;;;7375349;19;20022;-63
2024/04/17 07:49:45;;;;;;;7.32;1.95;;;7.70;99.90;;;;;;7378344;19;20023;-64
2024/04/17 07:52:11;;;;;;;8.85;1.60;;;7.90;99.90;;;;;;7376317;19;20023;-63
2024/04/17 07:54:37;;;;;;;5.85;2.08;;;7.80;95.20;;;;;;7375121;19;20836;-64
2024/04/17 07:57:04;;;;;;;8.85;2.42;;;7.90;49.30;;;;;;7384784;19;20058;-63
2024/04/17 07:59:30;;;;;;;10.38;3.10;;;8.10;57.00;;;;;;7385214;19;20044;-60
2024/04/17 08:01:56;;;;;;;9.60;1.90;;;8.10;1.00;;;;;;7383468;19;20018;-63
2024/04/17 08:04:22;;;;;;;9.32;3.20;;;8.20;1.00;;;;;;7383685;19;20035;-62
2024/04/17 08:06:48;;;;;;;11.45;4.30;;;8.30;1.00;;;;;;7382947;19;20031;-63
2024/04/17 08:09:15;;;;;;;10.07;2.53;;;8.50;1.00;;;;;;7385127;19;20031;-60
2024/04/17 08:11:41;;;;;;;8.60;2.90;;;8.60;1.00;;;;;;7382284;19;20021;-60
2024/04/17 08:14:07;;;;;;;17.77;9.70;;;9.00;1.00;;;;;;7384127;19;20019;-60
2024/04/17 08:16:34;;;;;;;12.75;5.30;;;9.40;1.00;;;;;;7385889;19;20058;-63
2024/04/17 08:19:01;;;;;;;6.97;1.73;;;10.00;99.90;;;;;;7383156;19;20015;-60
2024/04/17 08:21:28;;;;;;;18.15;9.07;;;10.60;1.00;;;;;;7381194;19;20014;-60
2024/04/17 08:23:55;;;;;;;12.60;6.18;;;10.90;99.90;;;;;;7384372;19;20482;-63
2024/04/17 08:26:21;;;;;;;7.68;1.90;;;11.40;99.90;;;;;;7377863;19;20478;-63
2024/04/17 08:28:47;;;;;;;9.45;1.98;;;12.10;99.90;;;;;;7380321;19;20025;-62
2024/04/17 08:31:14;;;;;;;8.85;1.67;;;12.70;96.40;;;;;;7384508;19;20022;-63
2024/04/17 08:33:40;;;;;;;9.25;1.77;;;13.00;99.90;;;;;;7378707;19;20014;-63
2024/04/17 08:36:06;;;;;;;6.93;1.95;;;12.80;99.90;;;;;;7384047;19;20094;-63
2024/04/17 08:38:32;;;;;;;12.07;6.38;;;12.90;99.90;;;;;;7382247;19;20037;-64
2024/04/17 08:40:59;;;;;;;15.73;9.45;;;12.50;99.90;;;;;;7381522;19;20024;-63
2024/04/17 08:43:26;;;;;;;10.52;5.45;;;12.10;99.90;;;;;;7382697;19;20037;-64
2024/04/17 08:45:54;;;;;;;7.00;2.10;;;11.70;99.90;;;;;;7373128;19;20046;-63
2024/04/17 08:48:21;;;;;;;14.73;7.32;;;11.40;99.90;;;;;;7381061;19;20045;-63
2024/04/17 08:50:49;;;;;;;24.73;16.13;;;11.10;99.90;;;;;;7384325;19;20090;-63
2024/04/17 08:53:17;;;;;;;10.75;2.65;;;10.70;99.90;;;;;;7380697;19;20014;-63
2024/04/17 08:55:45;;;;;;;10.82;2.10;;;10.60;99.90;;;;;;7382060;19;20041;-60
2024/04/17 08:58:11;;;;;;;9.05;2.65;;;10.70;1.00;;;;;;7379571;19;20045;-60
2024/04/17 09:00:42;;;;;;;8.43;1.95;;;10.60;99.90;;;;;;7382001;19;20038;-63
2024/04/17 09:03:10;;;;;;;9.15;3.95;;;10.50;99.90;;;;;;7379172;19;20745;-60
2024/04/17 09:05:36;;;;;;;16.30;7.82;;;11.00;99.90;;;;;;7379595;19;20109;-60
2024/04/17 09:08:02;;;;;;;10.98;3.75;;;11.10;99.90;;;;;;7380357;19;20463;-60
2024/04/17 09:10:29;;;;;;;6.88;1.90;;;11.30;99.90;;;;;;7380227;19;20011;-63
2024/04/17 09:12:56;;;;;;;7.53;1.52;;;11.20;99.90;;;;;;7379538;19;20025;-63
2024/04/17 09:15:22;;;;;;;9.57;1.83;;;11.10;99.90;;;;;;7381402;19;20595;-60
2024/04/17 09:17:48;;;;;;;4.43;1.35;;;10.90;99.90;;;;;;7381044;19;20050;-61
2024/04/17 09:20:15;;;;;;;8.90;1.85;;;10.80;99.90;;;;;;7379129;19;20019;-63
2024/04/17 09:22:42;;;;;;;10.40;3.15;;;10.70;99.90;;;;;;7380659;19;20033;-63
2024/04/17 09:25:13;;;;;;;8.35;1.90;;;10.70;99.90;;;;;;7378897;19;20146;-63
2024/04/17 09:27:40;;;;;;;11.77;3.38;;;10.70;99.90;;;;;;7377886;19;20021;-60
2024/04/17 09:30:06;;;;;;;13.02;6.45;;;10.90;99.90;;;;;;7378366;19;20477;-63
2024/04/17 09:32:33;;;;;;;7.40;1.67;;;11.30;99.90;;;;;;7382264;19;20022;-63
2024/04/17 09:35:00;;;;;;;11.65;2.05;;;11.70;99.90;;;;;;7378920;19;20022;-62
2024/04/17 09:37:26;;;;;;;6.10;1.50;;;11.80;32.10;;;;;;7380091;19;20018;-63
2024/04/17 09:40:06;;;;;;;7.05;1.60;;;11.70;87.20;;;;;;7380497;19;20387;-63
2024/04/17 09:42:37;;;;;;;6.57;2.50;;;11.60;1.00;;;;;;7376118;19;20022;-61
2024/04/17 09:45:04;;;;;;;7.53;1.85;;;11.50;44.70;;;;;;7380007;19;20011;-61
2024/04/17 09:47:31;;;;;;;8.20;2.15;;;11.40;99.90;;;;;;7377078;19;20018;-61
2024/04/17 09:49:59;;;;;;;9.90;2.42;;;11.20;99.90;;;;;;7382551;19;20010;-61
2024/04/17 09:52:29;;;;;;;8.82;2.22;;;11.10;99.90;;;;;;7380591;19;20025;-61
2024/04/17 09:54:56;;;;;;;9.65;3.42;;;12.30;99.90;;;;;;7379115;19;20408;-61
2024/04/17 09:57:23;;;;;;;12.82;5.65;;;13.50;99.90;;;;;;7382135;19;20010;-62
2024/04/17 09:59:49;;;;;;;4.05;1.30;;;14.10;1.00;;;;;;7376489;19;20428;-62
2024/04/17 10:02:17;;;;;;;7.50;1.90;;;15.20;1.00;;;;;;7381329;19;20026;-61
2024/04/17 10:04:45;;;;;;;21.40;13.45;;;15.20;1.00;;;;;;7378990;19;20021;-61
2024/04/17 10:07:14;;;;;;;9.13;4.63;;;15.80;99.90;;;;;;7378660;19;20029;-61
2024/04/17 10:09:40;;;;;;;6.45;2.42;;;16.30;99.90;;;;;;7376204;19;20025;-61
2024/04/17 10:12:13;;;;;;;10.73;3.47;;;16.90;99.90;;;;;;7379807;19;20055;-61
2024/04/17 10:14:40;;;;;;;6.78;1.60;;;16.80;99.90;;;;;;7377406;19;20022;-61
2024/04/17 10:17:07;;;;;;;20.35;12.23;;;17.00;99.90;;;;;;7379110;19;20036;-61
2024/04/17 10:19:37;;;;;;;8.75;2.17;;;17.60;99.90;;;;;;7375606;19;20021;-62
2024/04/17 10:22:05;;;;;;;27.30;19.73;;;17.80;99.90;;;;;;7380431;19;20088;-64
2024/04/17 10:24:31;;;;;;;12.77;4.88;;;18.40;99.90;;;;;;7379227;19;20014;-64
2024/04/17 10:26:57;;;;;;;9.25;2.10;;;18.60;99.90;;;;;;7377760;19;20081;-64
2024/04/17 10:29:27;;;;;;;5.65;1.00;;;18.60;99.90;;;;;;7378275;19;20376;-64
2024/04/17 10:32:04;;;;;;;7.25;1.20;;;17.90;99.90;;;;;;7376106;19;20486;-64
2024/04/17 10:34:45;;;;;;;8.23;2.17;;;16.80;99.90;;;;;;7377050;19;20015;-64
2024/04/17 10:37:12;;;;;;;22.88;18.88;;;16.70;99.90;;;;;;7372975;19;20138;-63
2024/04/17 10:39:39;;;;;;;62.45;55.38;;;17.00;99.90;;;;;;7375965;19;20093;-63
2024/04/17 10:42:07;;;;;;;85.45;76.38;;;17.30;99.90;;;;;;7378310;19;20018;-61
2024/04/17 10:44:35;;;;;;;17.25;8.20;;;17.50;99.90;;;;;;7375650;19;20018;-61
2024/04/17 10:47:05;;;;;;;17.67;12.35;;;16.80;99.90;;;;;;7375059;19;20120;-61
2024/04/17 10:49:39;;;;;;;45.93;39.87;;;16.00;99.90;;;;;;7379152;19;20086;-64
2024/04/17 10:52:06;;;;;;;24.95;18.33;;;15.30;99.90;;;;;;7379842;19;20018;-63
2024/04/17 10:54:34;;;;;;;21.08;16.15;;;14.80;99.90;;;;;;7377995;19;20025;-64
2024/04/17 10:57:03;;;;;;;10.32;3.80;;;14.20;99.90;;;;;;7379149;19;20014;-63
2024/04/17 10:59:29;;;;;;;7.80;1.40;;;14.30;99.90;;;;;;7376473;19;20014;-63
2024/04/17 11:01:55;;;;;;;8.70;2.80;;;15.40;99.90;;;;;;7378878;19;20380;-63
2024/04/17 11:04:25;;;;;;;8.43;4.18;;;16.50;99.90;;;;;;7375827;19;20477;-61
2024/04/17 11:06:51;;;;;;;6.25;1.50;;;16.80;99.90;;;;;;7373832;19;20379;-60
2024/04/17 11:09:17;;;;;;;6.85;1.42;;;16.70;99.90;;;;;;7376908;19;20014;-61
2024/04/17 11:11:46;;;;;;;4.93;1.45;;;15.80;99.90;;;;;;7377819;19;20010;-60
2024/04/17 11:14:15;;;;;;;4.22;1.13;;;15.30;99.90;;;;;;7377965;19;20027;-60
2024/04/17 11:16:43;;;;;;;6.30;1.52;;;14.50;99.90;;;;;;7376622;19;20014;-60
2024/04/17 11:19:10;;;;;;;3.90;1.00;;;14.10;99.90;;;;;;7379661;19;20011;-60
2024/04/17 11:21:36;;;;;;;2.88;0.95;;;13.60;99.90;;;;;;7378098;19;20010;-60
2024/04/17 11:24:04;;;;;;;4.13;1.10;;;13.20;99.90;;;;;;7377786;19;20018;-60
2024/04/17 11:26:31;;;;;;;6.05;1.60;;;12.80;99.90;;;;;;7375109;19;20035;-60
2024/04/17 11:28:57;;;;;;;5.35;1.70;;;12.80;99.90;;;;;;7377215;19;20785;-59
2024/04/17 11:31:24;;;;;;;5.57;1.67;;;12.80;99.90;;;;;;7377724;19;20070;-58
2024/04/17 11:33:50;;;;;;;5.90;1.83;;;12.90;99.90;;;;;;7377176;19;20026;-59
2024/04/17 11:36:17;;;;;;;4.88;1.20;;;13.10;99.90;;;;;;7376922;19;20090;-58
2024/04/17 11:38:44;;;;;;;5.50;1.75;;;12.80;99.90;;;;;;7378627;19;20014;-58
2024/04/17 11:41:15;;;;;;;5.28;1.30;;;12.80;99.90;;;;;;7375398;19;20213;-58
2024/04/17 11:43:42;;;;;;;7.13;1.63;;;12.60;99.90;;;;;;7376893;19;20010;-59
2024/04/17 11:46:11;;;;;;;5.05;1.42;;;12.20;99.90;;;;;;7376640;19;20011;-57
2024/04/17 11:48:37;;;;;;;4.95;1.25;;;12.20;99.90;;;;;;7377808;19;20010;-58
2024/04/17 11:51:04;;;;;;;6.70;1.77;;;12.00;99.90;;;;;;7377996;19;20435;-57
2024/04/17 11:53:30;;;;;;;6.13;1.63;;;12.00;99.90;;;;;;7377157;19;20010;-58
2024/04/17 11:55:59;;;;;;;6.40;1.55;;;11.90;99.90;;;;;;7374414;19;20014;-57
2024/04/17 11:58:27;;;;;;;6.63;1.38;;;11.70;99.90;;;;;;7372839;19;20025;-57
2024/04/17 12:00:53;;;;;;;6.10;1.45;;;11.70;99.90;;;;;;7376029;19;20031;-59
2024/04/17 12:03:20;;;;;;;7.60;1.50;;;11.40;99.90;;;;;;7378130;19;20125;-57
2024/04/17 12:05:48;;;;;;;11.30;2.17;;;11.40;99.90;;;;;;7374532;19;20019;-58
2024/04/17 12:08:17;;;;;;;6.95;2.00;;;11.50;99.90;;;;;;7374298;19;20030;-59
2024/04/17 12:10:47;;;;;;;6.07;1.48;;;11.60;99.90;;;;;;7365517;19;20478;-58
2024/04/17 12:13:14;;;;;;;6.15;1.67;;;11.50;99.90;;;;;;7375201;19;20557;-58
2024/04/17 12:15:40;;;;;;;5.68;2.00;;;11.60;99.90;;;;;;7370796;19;20973;-57
2024/04/17 12:18:07;;;;;;;5.32;1.38;;;11.70;99.90;;;;;;7366937;19;20019;-57
2024/04/17 12:20:33;;;;;;;5.22;1.20;;;11.90;99.90;;;;;;7370907;19;20038;-58
2024/04/17 12:22:59;;;;;;;6.20;1.05;;;12.10;99.90;;;;;;7377212;19;20014;-62
2024/04/17 12:28:11;;;;;;;4.40;1.13;;;12.50;99.90;;;;;;7369616;19;20700;-63
2024/04/17 12:30:38;;;;;;;3.50;0.85;;;13.20;99.90;;;;;;7376605;19;20018;-63
2024/04/17 12:33:06;;;;;;;5.80;1.52;;;13.80;99.90;;;;;;7376404;19;20021;-62
2024/04/17 12:35:32;;;;;;;5.53;1.30;;;14.10;99.90;;;;;;7374794;19;20025;-63
2024/04/17 12:37:58;;;;;;;4.97;1.45;;;13.90;99.90;;;;;;7374000;19;20851;-63
2024/04/17 12:40:25;;;;;;;6.78;1.38;;;13.70;99.90;;;;;;7375761;19;20014;-63
2024/04/17 12:42:51;;;;;;;6.15;1.15;;;13.40;99.90;;;;;;7375699;19;20022;-64
2024/04/17 12:45:18;;;;;;;6.07;1.50;;;13.20;99.90;;;;;;7382561;19;20018;-63
2024/04/17 12:47:45;;;;;;;6.35;1.50;;;12.90;99.90;;;;;;7376509;19;20015;-63
2024/04/17 12:50:11;;;;;;;5.43;1.33;;;12.90;99.90;;;;;;7375188;19;20022;-62
2024/04/17 12:52:37;;;;;;;5.95;1.42;;;12.80;99.90;;;;;;7377068;19;20078;-62
2024/04/17 12:55:04;;;;;;;4.20;1.08;;;12.70;99.90;;;;;;7375894;19;20393;-63
2024/04/17 12:57:31;;;;;;;8.27;1.25;;;12.90;99.90;;;;;;7380540;19;20087;-65
2024/04/17 12:59:57;;;;;;;6.20;1.50;;;14.00;99.90;;;;;;7377106;19;20035;-63
2024/04/17 13:02:23;;;;;;;9.65;3.15;;;14.50;99.90;;;;;;7373324;19;20573;-66
2024/04/17 13:04:51;;;;;;;5.25;1.27;;;14.70;99.90;;;;;;7366953;19;20032;-65
2024/04/17 13:07:17;;;;;;;6.43;1.40;;;15.20;99.90;;;;;;7371906;19;20038;-65
2024/04/17 13:10:13;;;;;;;5.47;1.15;;;15.90;99.90;;;;;;7356860;19;20018;-64
2024/04/17 13:12:49;;;;;;;5.30;1.10;;;17.20;99.90;;;;;;7355961;19;20015;-65
2024/04/17 13:15:16;;;;;;;4.97;2.42;;;18.20;99.90;;;;;;7377388;19;20051;-65
2024/04/17 13:17:42;;;;;;;3.58;1.10;;;19.20;99.90;;;;;;7380843;19;20081;-65